createdAt,value
2018-04-19T18:50:00.619Z,23.48
2018-04-19T18:51:09.459Z,23.36
2018-04-19T18:52:18.304Z,23.36
2018-04-19T18:53:27.692Z,23.38
2018-04-19T18:54:36.534Z,23.22
2018-04-19T18:55:45.655Z,23.17
2018-04-19T18:56:54.780Z,23.15
2018-04-19T18:58:03.619Z,23.09
2018-04-19T18:59:12.458Z,23.05
2018-04-19T19:00:21.301Z,23.02
2018-04-19T19:01:30.147Z,23.02
2018-04-19T19:02:39.000Z,23.01
2018-04-19T19:03:48.123Z,23
2018-04-19T19:04:56.978Z,23
2018-04-19T19:06:05.826Z,22.88
2018-04-19T19:07:14.669Z,22.77
2018-04-19T19:08:23.508Z,22.79
2018-04-19T19:09:32.348Z,22.62
2018-04-19T19:10:41.467Z,22.61
2018-04-19T19:11:50.581Z,22.61
2018-04-19T19:12:59.421Z,22.57
2018-04-19T19:14:08.815Z,22.52
2018-04-19T19:15:17.654Z,22.51
2018-04-19T19:16:26.499Z,22.51
2018-04-19T19:17:35.339Z,22.43
2018-04-19T19:18:44.455Z,22.43
2018-04-19T19:19:53.296Z,22.37
2018-04-19T19:21:02.242Z,22.2
2018-04-19T19:22:11.361Z,22.17
2018-04-19T19:23:20.204Z,22.18
2018-04-19T19:24:29.052Z,22.18
2018-04-19T19:25:38.183Z,22.07
2018-04-19T19:26:47.157Z,22.1
2018-04-19T19:27:55.995Z,22.1
2018-04-19T19:29:04.844Z,21.98
2018-04-19T19:30:13.698Z,22.02
2018-04-19T19:31:22.541Z,21.98
2018-04-19T19:32:31.653Z,21.91
2018-04-19T19:33:40.493Z,21.9
2018-04-19T19:34:49.332Z,21.92
2018-04-19T19:35:58.175Z,21.96
2018-04-19T19:37:07.590Z,21.9
2018-04-19T19:38:16.776Z,21.92
2018-04-19T19:39:25.613Z,21.88
2018-04-19T19:40:34.448Z,21.92
2018-04-19T19:41:43.290Z,21.84
2018-04-19T19:42:52.405Z,21.82
2018-04-19T19:44:01.620Z,21.82
2018-04-19T19:45:10.732Z,21.82
2018-04-19T19:46:19.573Z,21.83
2018-04-19T19:47:28.414Z,21.83
2018-04-19T19:48:37.251Z,21.75
2018-04-19T19:49:46.155Z,21.68
2018-04-19T19:50:55.259Z,21.67
2018-04-19T19:52:04.094Z,21.68
2018-04-19T19:53:12.939Z,21.65
2018-04-19T19:54:21.775Z,21.64
2018-04-19T19:55:30.726Z,21.65
2018-04-19T19:56:39.455Z,21.68
2018-04-19T19:57:48.293Z,21.59
2018-04-19T19:58:57.131Z,21.58
2018-04-19T20:00:05.974Z,21.52
2018-04-19T20:01:15.095Z,21.58
2018-04-19T20:02:23.933Z,21.43
2018-04-19T20:03:32.773Z,21.4
2018-04-19T20:04:41.619Z,21.37
2018-04-19T20:05:50.500Z,21.35
2018-04-19T20:07:00.246Z,21.35
2018-04-19T20:08:09.369Z,21.29
2018-04-19T20:09:18.209Z,21.22
2018-04-19T20:10:27.049Z,21.12
2018-04-19T20:11:35.890Z,21.1
2018-04-19T20:12:45.012Z,21.14
2018-04-19T20:13:54.130Z,21.12
2018-04-19T20:15:02.968Z,21.07
2018-04-19T20:16:12.083Z,20.95
2018-04-19T20:17:20.928Z,20.95
2018-04-19T20:18:29.763Z,20.97
2018-04-19T20:19:38.888Z,20.88
2018-04-19T20:20:47.731Z,20.88
2018-04-19T20:21:56.846Z,20.74
2018-04-19T20:23:05.961Z,20.73
2018-04-19T20:24:14.850Z,20.74
2018-04-19T20:25:23.690Z,20.7
2018-04-19T20:26:32.529Z,20.7
2018-04-19T20:27:41.372Z,20.7
2018-04-19T20:28:50.488Z,20.61
2018-04-19T20:29:59.330Z,20.59
2018-04-19T20:31:08.167Z,20.51
2018-04-19T20:32:17.005Z,20.51
2018-04-19T20:33:25.843Z,20.52
2018-04-19T20:34:34.680Z,20.35
2018-04-19T20:35:44.080Z,20.38
2018-04-19T20:36:52.919Z,20.48
2018-04-19T20:38:01.757Z,20.42
2018-04-19T20:39:10.867Z,20.31
2018-04-19T20:40:19.986Z,20.32
2018-04-19T20:41:29.249Z,20.29
2018-04-19T20:42:38.089Z,20.21
2018-04-19T20:43:46.926Z,20.18
2018-04-19T20:44:56.038Z,20.16
2018-04-19T20:46:05.151Z,20.23
2018-04-19T20:47:14.420Z,20.21
2018-04-19T20:48:23.262Z,20.17
2018-04-19T20:49:32.101Z,20.11
2018-04-19T20:50:40.939Z,20.14
2018-04-19T20:51:49.782Z,20.08
2018-04-19T20:52:58.667Z,20.05
2018-04-19T20:54:07.506Z,20.11
2018-04-19T20:55:16.344Z,19.96
2018-04-19T20:56:25.183Z,20.06
2018-04-19T20:57:34.295Z,19.91
2018-04-19T20:58:43.508Z,19.92
2018-04-19T20:59:52.624Z,19.92
2018-04-19T21:01:01.462Z,19.86
2018-04-19T21:02:10.368Z,19.77
2018-04-19T21:03:19.549Z,19.84
2018-04-19T21:04:28.486Z,19.86
2018-04-19T21:05:37.880Z,19.74
2018-04-19T21:06:46.718Z,19.77
2018-04-19T21:07:55.555Z,19.74
2018-04-19T21:09:04.668Z,19.73
2018-04-19T21:10:13.553Z,19.73
2018-04-19T21:11:22.396Z,19.68
2018-04-19T21:12:31.233Z,19.71
2018-04-19T21:13:40.071Z,19.65
2018-04-19T21:14:48.910Z,19.61
2018-04-19T21:15:57.847Z,19.56
2018-04-19T21:17:06.961Z,19.55
2018-04-19T21:18:15.798Z,19.47
2018-04-19T21:19:24.643Z,19.54
2018-04-19T21:20:33.755Z,19.44
2018-04-19T21:21:42.892Z,19.55
2018-04-19T21:22:51.732Z,19.43
2018-04-19T21:24:00.570Z,19.4
2018-04-19T21:25:09.683Z,19.37
2018-04-19T21:26:18.526Z,19.39
2018-04-19T21:27:27.671Z,19.41
2018-04-19T21:28:36.505Z,19.37
2018-04-19T21:29:45.342Z,19.41
2018-04-19T21:30:54.184Z,19.33
2018-04-19T21:32:03.021Z,19.28
2018-04-19T21:33:11.911Z,19.25
2018-04-19T21:34:20.749Z,19.23
2018-04-19T21:35:29.868Z,19.13
2018-04-19T21:36:38.713Z,19.13
2018-04-19T21:37:47.832Z,19.11
2018-04-19T21:38:56.724Z,19.08
2018-04-19T21:40:05.836Z,19.1
2018-04-19T21:41:14.675Z,19
2018-04-19T21:42:23.510Z,18.98
2018-04-19T21:43:32.348Z,18.95
2018-04-19T21:44:41.283Z,18.94
2018-04-19T21:45:50.122Z,18.92
2018-04-19T21:46:58.959Z,18.98
2018-04-19T21:48:07.796Z,18.98
2018-04-19T21:49:16.915Z,18.94
2018-04-19T21:50:25.853Z,18.95
2018-04-19T21:51:34.692Z,18.98
2018-04-19T21:52:43.534Z,18.85
2018-04-19T21:53:52.651Z,18.88
2018-04-19T21:55:01.485Z,18.78
2018-04-19T21:56:10.654Z,18.87
2018-04-19T21:57:19.768Z,18.82
2018-04-19T21:58:28.603Z,18.72
2018-04-19T21:59:37.441Z,18.81
2018-04-19T22:00:46.276Z,18.75
2018-04-19T22:01:55.265Z,18.67
2018-04-19T22:03:04.378Z,18.69
2018-04-19T22:04:13.214Z,18.67
2018-04-19T22:05:22.053Z,18.65
2018-04-19T22:06:30.891Z,18.72
2018-04-19T22:07:40.106Z,18.65
2018-04-19T22:08:49.262Z,18.62
2018-04-19T22:09:58.455Z,18.69
2018-04-19T22:11:07.294Z,18.72
2018-04-19T22:12:16.132Z,18.67
2018-04-19T22:13:24.969Z,18.67
2018-04-19T22:14:33.818Z,18.62
2018-04-19T22:15:42.650Z,18.62
2018-04-19T22:16:51.761Z,18.6
2018-04-19T22:18:00.596Z,18.57
2018-04-19T22:19:09.436Z,18.62
2018-04-19T22:20:18.553Z,18.58
2018-04-19T22:21:27.667Z,18.62
2018-04-19T22:22:36.511Z,18.54
2018-04-19T22:23:45.342Z,18.57
2018-04-19T22:24:54.181Z,18.42
2018-04-19T22:26:03.024Z,18.55
2018-04-19T22:27:11.860Z,18.58
2018-04-19T22:28:20.699Z,18.55
2018-04-19T22:29:29.823Z,18.54
2018-04-19T22:30:38.656Z,18.51
2018-04-19T22:31:47.493Z,18.51
2018-04-19T22:32:56.334Z,18.48
2018-04-19T22:34:05.450Z,18.51
2018-04-19T22:35:14.298Z,18.41
2018-04-19T22:36:23.287Z,18.37
2018-04-19T22:37:32.124Z,18.33
2018-04-19T22:38:40.960Z,18.3
2018-04-19T22:39:50.070Z,18.29
2018-04-19T22:40:58.907Z,18.2
2018-04-19T22:42:08.050Z,18.27
2018-04-19T22:43:17.157Z,18.27
2018-04-19T22:44:25.999Z,18.2
2018-04-19T22:45:34.833Z,18.2
2018-04-19T22:46:43.681Z,18.25
2018-04-19T22:47:52.845Z,18.21
2018-04-19T22:49:01.957Z,18.08
2018-04-19T22:50:11.356Z,18
2018-04-19T22:51:20.193Z,17.96
2018-04-19T22:52:29.030Z,17.93
2018-04-19T22:53:37.976Z,17.89
2018-04-19T22:54:46.807Z,17.9
2018-04-19T22:55:55.643Z,17.86
2018-04-19T22:57:04.759Z,17.9
2018-04-19T22:58:13.599Z,17.78
2018-04-19T22:59:22.436Z,17.77
2018-04-19T23:00:31.270Z,17.78
2018-04-19T23:01:40.106Z,17.78
2018-04-19T23:02:49.224Z,17.74
2018-04-19T23:03:58.062Z,17.68
2018-04-19T23:05:07.345Z,17.7
2018-04-19T23:06:16.453Z,17.59
2018-04-19T23:07:25.291Z,17.58
2018-04-19T23:08:34.128Z,17.58
2018-04-19T23:09:42.965Z,17.48
2018-04-19T23:10:52.377Z,17.51
2018-04-19T23:12:01.216Z,17.48
2018-04-19T23:13:10.055Z,17.48
2018-04-19T23:14:18.892Z,17.44
2018-04-19T23:15:28.003Z,17.4
2018-04-19T23:16:36.942Z,17.34
2018-04-19T23:17:46.057Z,17.33
2018-04-19T23:18:54.900Z,17.25
2018-04-19T23:20:04.289Z,17.25
2018-04-19T23:21:13.125Z,17.16
2018-04-19T23:22:22.013Z,17.19
2018-04-19T23:23:31.131Z,17.23
2018-04-19T23:24:39.958Z,17.19
2018-04-19T23:25:48.798Z,17.06
2018-04-19T23:26:57.633Z,17.08
2018-04-19T23:28:06.948Z,17.08
2018-04-19T23:29:15.786Z,17.03
2018-04-19T23:30:25.190Z,17.04
2018-04-19T23:31:34.027Z,16.97
2018-04-19T23:32:43.142Z,17.04
2018-04-19T23:33:52.551Z,16.98
2018-04-19T23:35:01.665Z,16.98
2018-04-19T23:36:10.792Z,16.89
2018-04-19T23:37:20.180Z,16.93
2018-04-19T23:38:29.020Z,16.91
2018-04-19T23:39:38.705Z,17
2018-04-19T23:40:47.545Z,16.98
2018-04-19T23:41:56.381Z,16.97
2018-04-19T23:43:05.218Z,16.94
2018-04-19T23:44:14.055Z,16.88
2018-04-19T23:45:23.042Z,16.85
2018-04-19T23:46:31.879Z,16.83
2018-04-19T23:47:40.715Z,16.89
2018-04-19T23:48:49.551Z,16.83
2018-04-19T23:49:58.390Z,16.88
2018-04-19T23:51:07.269Z,16.89
2018-04-19T23:52:16.107Z,16.86
2018-04-19T23:53:24.944Z,16.78
2018-04-19T23:54:33.781Z,16.71
2018-04-19T23:55:42.896Z,16.73
2018-04-19T23:56:51.780Z,16.7
2018-04-19T23:58:01.173Z,16.67
2018-04-19T23:59:10.277Z,16.71
